sensor_id;sensor_type;location;lat;lon;timestamp;temperature;humidity
16060;DHT22;8134;49.552;7.632;2023-12-29T00:01:36;10.00;99.90
16060;DHT22;8134;49.552;7.632;2023-12-29T00:04:02;9.90;99.90
16060;DHT22;8134;49.552;7.632;2023-12-29T00:06:29;9.90;99.90
16060;DHT22;8134;49.552;7.632;2023-12-29T00:08:55;9.90;99.90
16060;DHT22;8134;49.552;7.632;2023-12-29T00:11:22;9.90;99.90
16060;DHT22;8134;49.552;7.632;2023-12-29T00:38:33;9.80;99.90
16060;DHT22;8134;49.552;7.632;2023-12-29T00:41:00;9.80;99.90
16060;DHT22;8134;49.552;7.632;2023-12-29T00:43:26;9.90;99.90
16060;DHT22;8134;49.552;7.632;2023-12-29T00:45:52;9.90;99.90
16060;DHT22;8134;49.552;7.632;2023-12-29T00:48:18;9.90;99.90
16060;DHT22;8134;49.552;7.632;2023-12-29T00:50:43;9.90;99.90
16060;DHT22;8134;49.552;7.632;2023-12-29T00:56:12;9.90;99.90
16060;DHT22;8134;49.552;7.632;2023-12-29T00:58:39;9.90;99.90
16060;DHT22;8134;49.552;7.632;2023-12-29T01:01:06;9.90;99.90
16060;DHT22;8134;49.552;7.632;2023-12-29T01:03:33;9.80;99.90
16060;DHT22;8134;49.552;7.632;2023-12-29T01:18:15;9.90;99.90
16060;DHT22;8134;49.552;7.632;2023-12-29T01:20:41;9.90;99.90
16060;DHT22;8134;49.552;7.632;2023-12-29T01:23:07;10.00;99.90
16060;DHT22;8134;49.552;7.632;2023-12-29T01:25:33;10.00;99.90
16060;DHT22;8134;49.552;7.632;2023-12-29T01:49:37;10.00;99.90
16060;DHT22;8134;49.552;7.632;2023-12-29T01:52:03;9.90;99.90
16060;DHT22;8134;49.552;7.632;2023-12-29T01:54:34;9.90;99.90
16060;DHT22;8134;49.552;7.632;2023-12-29T01:57:01;10.00;99.90
16060;DHT22;8134;49.552;7.632;2023-12-29T01:59:27;10.00;99.90
16060;DHT22;8134;49.552;7.632;2023-12-29T02:01:54;10.00;99.90
16060;DHT22;8134;49.552;7.632;2023-12-29T02:04:26;10.00;99.90
16060;DHT22;8134;49.552;7.632;2023-12-29T02:12:45;10.00;99.90
16060;DHT22;8134;49.552;7.632;2023-12-29T02:15:13;9.90;99.90
16060;DHT22;8134;49.552;7.632;2023-12-29T02:17:45;10.00;99.90
16060;DHT22;8134;49.552;7.632;2023-12-29T02:20:13;10.00;99.90
16060;DHT22;8134;49.552;7.632;2023-12-29T02:22:40;10.00;99.90
16060;DHT22;8134;49.552;7.632;2023-12-29T02:31:14;10.00;99.90
16060;DHT22;8134;49.552;7.632;2023-12-29T02:33:41;10.00;99.90
16060;DHT22;8134;49.552;7.632;2023-12-29T02:36:08;10.00;99.90
16060;DHT22;8134;49.552;7.632;2023-12-29T02:38:35;10.00;99.90
16060;DHT22;8134;49.552;7.632;2023-12-29T02:41:01;10.00;99.90
16060;DHT22;8134;49.552;7.632;2023-12-29T02:43:27;10.00;99.90
16060;DHT22;8134;49.552;7.632;2023-12-29T02:45:56;10.00;99.90
16060;DHT22;8134;49.552;7.632;2023-12-29T02:48:22;10.00;99.90
16060;DHT22;8134;49.552;7.632;2023-12-29T03:06:11;10.10;99.90
16060;DHT22;8134;49.552;7.632;2023-12-29T03:08:37;10.10;99.90
16060;DHT22;8134;49.552;7.632;2023-12-29T03:11:03;10.10;99.90
16060;DHT22;8134;49.552;7.632;2023-12-29T03:13:29;10.10;99.90
16060;DHT22;8134;49.552;7.632;2023-12-29T03:15:54;10.10;99.90
16060;DHT22;8134;49.552;7.632;2023-12-29T03:21:26;10.20;99.90
16060;DHT22;8134;49.552;7.632;2023-12-29T03:23:52;10.20;99.90
16060;DHT22;8134;49.552;7.632;2023-12-29T03:26:17;10.10;99.90
16060;DHT22;8134;49.552;7.632;2023-12-29T03:28:43;10.10;99.90
16060;DHT22;8134;49.552;7.632;2023-12-29T03:37:14;10.20;99.90
16060;DHT22;8134;49.552;7.632;2023-12-29T03:39:40;10.20;99.90
16060;DHT22;8134;49.552;7.632;2023-12-29T03:42:06;10.10;99.90
16060;DHT22;8134;49.552;7.632;2023-12-29T03:44:32;10.10;99.90
16060;DHT22;8134;49.552;7.632;2023-12-29T03:46:58;10.10;99.90
16060;DHT22;8134;49.552;7.632;2023-12-29T03:49:24;10.10;99.90
16060;DHT22;8134;49.552;7.632;2023-12-29T03:57:58;10.00;99.90
16060;DHT22;8134;49.552;7.632;2023-12-29T04:00:25;10.00;99.90
16060;DHT22;8134;49.552;7.632;2023-12-29T04:02:50;10.00;99.90
16060;DHT22;8134;49.552;7.632;2023-12-29T04:52:20;10.10;99.90
16060;DHT22;8134;49.552;7.632;2023-12-29T05:10:10;10.20;99.90
16060;DHT22;8134;49.552;7.632;2023-12-29T06:12:28;10.20;99.90
16060;DHT22;8134;49.552;7.632;2023-12-29T06:51:51;10.30;99.90
16060;DHT22;8134;49.552;7.632;2023-12-29T06:54:17;10.30;99.90
16060;DHT22;8134;49.552;7.632;2023-12-29T06:56:42;10.30;99.90
16060;DHT22;8134;49.552;7.632;2023-12-29T06:59:09;10.30;99.90
16060;DHT22;8134;49.552;7.632;2023-12-29T07:01:38;10.30;99.90
16060;DHT22;8134;49.552;7.632;2023-12-29T07:04:03;10.30;99.90
16060;DHT22;8134;49.552;7.632;2023-12-29T07:09:32;10.30;99.90
16060;DHT22;8134;49.552;7.632;2023-12-29T07:11:57;10.30;99.90
16060;DHT22;8134;49.552;7.632;2023-12-29T07:14:23;10.30;99.90
16060;DHT22;8134;49.552;7.632;2023-12-29T07:16:48;10.30;99.90
16060;DHT22;8134;49.552;7.632;2023-12-29T07:59:31;10.30;99.90
16060;DHT22;8134;49.552;7.632;2023-12-29T08:01:57;10.30;99.90
16060;DHT22;8134;49.552;7.632;2023-12-29T08:29:31;10.40;99.90
16060;DHT22;8134;49.552;7.632;2023-12-29T09:05:52;10.50;99.90
16060;DHT22;8134;49.552;7.632;2023-12-29T09:14:50;10.50;99.90
16060;DHT22;8134;49.552;7.632;2023-12-29T09:17:16;10.50;99.90
16060;DHT22;8134;49.552;7.632;2023-12-29T09:20:41;10.50;99.90
16060;DHT22;8134;49.552;7.632;2023-12-29T09:23:59;10.50;99.90
16060;DHT22;8134;49.552;7.632;2023-12-29T09:26:25;10.50;99.90
16060;DHT22;8134;49.552;7.632;2023-12-29T09:28:50;10.50;99.90
16060;DHT22;8134;49.552;7.632;2023-12-29T09:31:16;10.50;99.90
16060;DHT22;8134;49.552;7.632;2023-12-29T09:43:16;10.60;99.90
16060;DHT22;8134;49.552;7.632;2023-12-29T09:54:55;10.60;99.90
16060;DHT22;8134;49.552;7.632;2023-12-29T09:57:58;10.60;99.90
16060;DHT22;8134;49.552;7.632;2023-12-29T10:01:04;10.60;99.90
16060;DHT22;8134;49.552;7.632;2023-12-29T10:03:32;10.70;99.90
16060;DHT22;8134;49.552;7.632;2023-12-29T10:06:03;10.70;99.90
16060;DHT22;8134;49.552;7.632;2023-12-29T10:08:32;10.70;99.90
16060;DHT22;8134;49.552;7.632;2023-12-29T10:10:59;10.80;99.90
16060;DHT22;8134;49.552;7.632;2023-12-29T10:13:28;10.70;99.90
16060;DHT22;8134;49.552;7.632;2023-12-29T10:19:49;10.80;99.90
16060;DHT22;8134;49.552;7.632;2023-12-29T10:22:25;10.80;99.90
16060;DHT22;8134;49.552;7.632;2023-12-29T10:28:13;10.80;99.90
16060;DHT22;8134;49.552;7.632;2023-12-29T10:31:17;10.80;99.90
16060;DHT22;8134;49.552;7.632;2023-12-29T10:34:32;10.80;99.90
16060;DHT22;8134;49.552;7.632;2023-12-29T10:37:37;10.80;99.90
16060;DHT22;8134;49.552;7.632;2023-12-29T10:43:13;10.80;99.90
16060;DHT22;8134;49.552;7.632;2023-12-29T11:07:05;10.80;99.90
16060;DHT22;8134;49.552;7.632;2023-12-29T11:24:47;10.90;99.90
16060;DHT22;8134;49.552;7.632;2023-12-29T11:27:13;10.90;99.90
16060;DHT22;8134;49.552;7.632;2023-12-29T11:29:38;10.90;99.90
16060;DHT22;8134;49.552;7.632;2023-12-29T11:32:06;11.00;99.90
16060;DHT22;8134;49.552;7.632;2023-12-29T11:34:34;11.00;99.90
16060;DHT22;8134;49.552;7.632;2023-12-29T11:37:11;11.00;99.90
16060;DHT22;8134;49.552;7.632;2023-12-29T11:39:54;11.00;99.90
16060;DHT22;8134;49.552;7.632;2023-12-29T11:42:26;11.10;99.90
16060;DHT22;8134;49.552;7.632;2023-12-29T11:44:55;11.10;99.90
16060;DHT22;8134;49.552;7.632;2023-12-29T11:50:28;11.10;99.90
16060;DHT22;8134;49.552;7.632;2023-12-29T11:52:53;11.10;99.90
16060;DHT22;8134;49.552;7.632;2023-12-29T11:55:19;11.10;99.90
16060;DHT22;8134;49.552;7.632;2023-12-29T11:57:45;11.10;99.90
16060;DHT22;8134;49.552;7.632;2023-12-29T12:00:10;11.10;99.90
16060;DHT22;8134;49.552;7.632;2023-12-29T12:02:39;11.10;99.90
16060;DHT22;8134;49.552;7.632;2023-12-29T12:05:09;11.10;99.90
16060;DHT22;8134;49.552;7.632;2023-12-29T12:12:45;11.10;99.90
16060;DHT22;8134;49.552;7.632;2023-12-29T12:17:52;11.00;99.90
16060;DHT22;8134;49.552;7.632;2023-12-29T12:20:18;11.00;99.90
16060;DHT22;8134;49.552;7.632;2023-12-29T12:22:43;10.90;99.90
16060;DHT22;8134;49.552;7.632;2023-12-29T12:25:10;11.00;99.90
16060;DHT22;8134;49.552;7.632;2023-12-29T12:27:37;11.00;99.90
16060;DHT22;8134;49.552;7.632;2023-12-29T12:30:03;10.90;99.90
16060;DHT22;8134;49.552;7.632;2023-12-29T12:32:29;10.90;99.90
16060;DHT22;8134;49.552;7.632;2023-12-29T12:34:55;11.00;99.90
16060;DHT22;8134;49.552;7.632;2023-12-29T12:37:26;10.80;99.90
16060;DHT22;8134;49.552;7.632;2023-12-29T12:39:58;10.80;99.90
16060;DHT22;8134;49.552;7.632;2023-12-29T12:42:25;10.80;99.90
16060;DHT22;8134;49.552;7.632;2023-12-29T12:47:24;10.70;99.90
16060;DHT22;8134;49.552;7.632;2023-12-29T12:49:51;10.70;99.90
16060;DHT22;8134;49.552;7.632;2023-12-29T12:52:17;10.70;99.90
16060;DHT22;8134;49.552;7.632;2023-12-29T12:54:42;10.80;99.90
16060;DHT22;8134;49.552;7.632;2023-12-29T12:57:08;10.70;99.90
16060;DHT22;8134;49.552;7.632;2023-12-29T12:59:33;10.70;99.90
16060;DHT22;8134;49.552;7.632;2023-12-29T13:01:59;10.70;99.90
16060;DHT22;8134;49.552;7.632;2023-12-29T13:04:24;10.70;99.90
16060;DHT22;8134;49.552;7.632;2023-12-29T13:06:50;10.70;99.90
16060;DHT22;8134;49.552;7.632;2023-12-29T13:09:16;10.70;99.90
16060;DHT22;8134;49.552;7.632;2023-12-29T13:11:44;10.70;99.90
16060;DHT22;8134;49.552;7.632;2023-12-29T13:14:19;10.70;99.90
16060;DHT22;8134;49.552;7.632;2023-12-29T13:16:44;10.70;99.90
16060;DHT22;8134;49.552;7.632;2023-12-29T13:19:17;10.70;99.90
16060;DHT22;8134;49.552;7.632;2023-12-29T13:21:48;10.80;99.90
16060;DHT22;8134;49.552;7.632;2023-12-29T13:24:15;10.80;99.90
16060;DHT22;8134;49.552;7.632;2023-12-29T13:26:43;10.90;99.90
16060;DHT22;8134;49.552;7.632;2023-12-29T13:29:09;10.80;99.90
16060;DHT22;8134;49.552;7.632;2023-12-29T13:31:35;10.80;99.90
16060;DHT22;8134;49.552;7.632;2023-12-29T13:34:01;10.80;99.90
16060;DHT22;8134;49.552;7.632;2023-12-29T13:36:33;10.80;99.90
16060;DHT22;8134;49.552;7.632;2023-12-29T13:39:06;10.80;99.90
16060;DHT22;8134;49.552;7.632;2023-12-29T13:41:32;10.80;99.90
16060;DHT22;8134;49.552;7.632;2023-12-29T13:43:58;10.80;99.90
16060;DHT22;8134;49.552;7.632;2023-12-29T13:46:25;10.80;99.90
16060;DHT22;8134;49.552;7.632;2023-12-29T13:48:51;10.90;99.90
16060;DHT22;8134;49.552;7.632;2023-12-29T13:51:23;10.90;99.90
16060;DHT22;8134;49.552;7.632;2023-12-29T13:53:48;10.90;99.90
16060;DHT22;8134;49.552;7.632;2023-12-29T13:56:14;10.90;99.90
16060;DHT22;8134;49.552;7.632;2023-12-29T13:58:39;10.90;99.90
16060;DHT22;8134;49.552;7.632;2023-12-29T14:01:06;10.90;99.90
16060;DHT22;8134;49.552;7.632;2023-12-29T14:03:46;10.90;99.90
16060;DHT22;8134;49.552;7.632;2023-12-29T14:06:18;10.80;99.90
16060;DHT22;8134;49.552;7.632;2023-12-29T14:08:45;10.90;99.90
16060;DHT22;8134;49.552;7.632;2023-12-29T14:11:11;10.80;99.90
16060;DHT22;8134;49.552;7.632;2023-12-29T14:13:46;10.90;99.90
16060;DHT22;8134;49.552;7.632;2023-12-29T14:16:15;10.80;99.90
16060;DHT22;8134;49.552;7.632;2023-12-29T14:21:27;10.90;99.90
16060;DHT22;8134;49.552;7.632;2023-12-29T14:24:00;10.80;99.90
16060;DHT22;8134;49.552;7.632;2023-12-29T14:26:26;10.80;99.90
16060;DHT22;8134;49.552;7.632;2023-12-29T14:29:04;10.80;99.90
16060;DHT22;8134;49.552;7.632;2023-12-29T14:34:02;10.80;99.90
16060;DHT22;8134;49.552;7.632;2023-12-29T14:36:29;10.80;99.90
16060;DHT22;8134;49.552;7.632;2023-12-29T14:38:54;10.80;99.90
16060;DHT22;8134;49.552;7.632;2023-12-29T14:41:20;10.80;99.90
16060;DHT22;8134;49.552;7.632;2023-12-29T14:43:49;10.80;99.90
16060;DHT22;8134;49.552;7.632;2023-12-29T14:46:14;10.80;99.90
16060;DHT22;8134;49.552;7.632;2023-12-29T14:48:40;10.80;99.90
16060;DHT22;8134;49.552;7.632;2023-12-29T14:51:05;10.80;99.90
16060;DHT22;8134;49.552;7.632;2023-12-29T14:53:31;10.80;99.90
16060;DHT22;8134;49.552;7.632;2023-12-29T14:55:56;10.80;99.90
16060;DHT22;8134;49.552;7.632;2023-12-29T14:58:22;10.80;99.90
16060;DHT22;8134;49.552;7.632;2023-12-29T15:00:47;10.80;99.90
16060;DHT22;8134;49.552;7.632;2023-12-29T15:03:13;10.80;99.90
16060;DHT22;8134;49.552;7.632;2023-12-29T15:05:40;10.80;99.90
16060;DHT22;8134;49.552;7.632;2023-12-29T15:08:06;10.70;99.90
16060;DHT22;8134;49.552;7.632;2023-12-29T15:10:31;10.70;99.90
16060;DHT22;8134;49.552;7.632;2023-12-29T15:12:57;10.70;99.90
16060;DHT22;8134;49.552;7.632;2023-12-29T15:15:22;10.80;99.90
16060;DHT22;8134;49.552;7.632;2023-12-29T15:17:48;10.70;99.90
16060;DHT22;8134;49.552;7.632;2023-12-29T15:20:13;10.80;99.90
16060;DHT22;8134;49.552;7.632;2023-12-29T15:22:39;10.80;99.90
16060;DHT22;8134;49.552;7.632;2023-12-29T15:25:04;10.80;99.90
16060;DHT22;8134;49.552;7.632;2023-12-29T15:27:30;10.80;99.90
16060;DHT22;8134;49.552;7.632;2023-12-29T15:29:55;10.70;99.90
16060;DHT22;8134;49.552;7.632;2023-12-29T15:32:21;10.70;99.90
16060;DHT22;8134;49.552;7.632;2023-12-29T15:34:46;10.80;99.90
16060;DHT22;8134;49.552;7.632;2023-12-29T15:37:11;10.80;99.90
16060;DHT22;8134;49.552;7.632;2023-12-29T15:39:37;10.70;99.90
16060;DHT22;8134;49.552;7.632;2023-12-29T15:42:05;10.70;99.90
16060;DHT22;8134;49.552;7.632;2023-12-29T15:44:31;10.70;99.90
16060;DHT22;8134;49.552;7.632;2023-12-29T15:46:56;10.70;99.90
16060;DHT22;8134;49.552;7.632;2023-12-29T15:49:23;10.70;99.90
16060;DHT22;8134;49.552;7.632;2023-12-29T15:51:48;10.70;99.90
16060;DHT22;8134;49.552;7.632;2023-12-29T15:54:14;10.80;99.90
16060;DHT22;8134;49.552;7.632;2023-12-29T15:56:39;10.90;99.90
16060;DHT22;8134;49.552;7.632;2023-12-29T15:59:05;10.70;99.90
16060;DHT22;8134;49.552;7.632;2023-12-29T16:01:33;10.70;99.90
16060;DHT22;8134;49.552;7.632;2023-12-29T16:04:00;10.70;99.90
16060;DHT22;8134;49.552;7.632;2023-12-29T16:06:26;10.70;99.90
16060;DHT22;8134;49.552;7.632;2023-12-29T16:08:52;10.70;99.90
16060;DHT22;8134;49.552;7.632;2023-12-29T16:11:19;10.70;99.90
16060;DHT22;8134;49.552;7.632;2023-12-29T16:13:45;10.70;99.90
16060;DHT22;8134;49.552;7.632;2023-12-29T16:16:10;10.70;99.90
16060;DHT22;8134;49.552;7.632;2023-12-29T16:18:37;10.70;99.90
16060;DHT22;8134;49.552;7.632;2023-12-29T16:21:02;10.70;99.90
16060;DHT22;8134;49.552;7.632;2023-12-29T16:23:28;10.70;99.90
16060;DHT22;8134;49.552;7.632;2023-12-29T16:25:53;10.70;99.90
16060;DHT22;8134;49.552;7.632;2023-12-29T16:28:19;10.70;99.90
16060;DHT22;8134;49.552;7.632;2023-12-29T16:30:44;10.60;99.90
16060;DHT22;8134;49.552;7.632;2023-12-29T16:33:10;10.60;99.90
16060;DHT22;8134;49.552;7.632;2023-12-29T16:35:35;10.70;99.90
16060;DHT22;8134;49.552;7.632;2023-12-29T16:38:04;10.60;99.90
16060;DHT22;8134;49.552;7.632;2023-12-29T16:40:30;10.60;99.90
16060;DHT22;8134;49.552;7.632;2023-12-29T16:42:55;10.60;99.90
16060;DHT22;8134;49.552;7.632;2023-12-29T16:45:21;10.70;99.90
16060;DHT22;8134;49.552;7.632;2023-12-29T16:47:46;10.60;99.90
16060;DHT22;8134;49.552;7.632;2023-12-29T16:56:37;10.70;99.90
16060;DHT22;8134;49.552;7.632;2023-12-29T16:59:05;10.70;99.90
16060;DHT22;8134;49.552;7.632;2023-12-29T17:01:31;10.70;99.90
16060;DHT22;8134;49.552;7.632;2023-12-29T17:03:56;10.80;99.90
16060;DHT22;8134;49.552;7.632;2023-12-29T17:06:22;10.70;99.90
16060;DHT22;8134;49.552;7.632;2023-12-29T17:08:48;10.80;99.90
16060;DHT22;8134;49.552;7.632;2023-12-29T17:11:13;10.70;99.90
16060;DHT22;8134;49.552;7.632;2023-12-29T17:13:39;10.70;99.90
16060;DHT22;8134;49.552;7.632;2023-12-29T17:16:04;10.70;99.90
16060;DHT22;8134;49.552;7.632;2023-12-29T17:18:30;10.70;99.90
16060;DHT22;8134;49.552;7.632;2023-12-29T17:20:56;10.80;99.90
16060;DHT22;8134;49.552;7.632;2023-12-29T17:23:21;10.80;99.90
16060;DHT22;8134;49.552;7.632;2023-12-29T17:25:48;10.80;99.90
16060;DHT22;8134;49.552;7.632;2023-12-29T17:28:14;10.80;99.90
16060;DHT22;8134;49.552;7.632;2023-12-29T17:30:40;10.90;99.90
16060;DHT22;8134;49.552;7.632;2023-12-29T17:33:05;10.70;99.90
16060;DHT22;8134;49.552;7.632;2023-12-29T17:35:31;10.70;99.90
16060;DHT22;8134;49.552;7.632;2023-12-29T17:37:56;10.60;99.90
16060;DHT22;8134;49.552;7.632;2023-12-29T17:40:22;10.70;99.90
16060;DHT22;8134;49.552;7.632;2023-12-29T17:42:47;10.70;99.90
16060;DHT22;8134;49.552;7.632;2023-12-29T17:45:13;10.70;99.90
16060;DHT22;8134;49.552;7.632;2023-12-29T17:47:39;10.70;99.90
16060;DHT22;8134;49.552;7.632;2023-12-29T17:50:05;10.60;99.90
16060;DHT22;8134;49.552;7.632;2023-12-29T17:52:31;10.60;99.90
16060;DHT22;8134;49.552;7.632;2023-12-29T17:54:56;10.60;99.90
16060;DHT22;8134;49.552;7.632;2023-12-29T17:57:22;10.60;99.90
16060;DHT22;8134;49.552;7.632;2023-12-29T17:59:47;10.60;99.90
16060;DHT22;8134;49.552;7.632;2023-12-29T18:02:13;10.60;99.90
16060;DHT22;8134;49.552;7.632;2023-12-29T18:04:40;10.60;99.90
16060;DHT22;8134;49.552;7.632;2023-12-29T18:07:05;10.60;99.90
16060;DHT22;8134;49.552;7.632;2023-12-29T18:09:31;10.60;99.90
16060;DHT22;8134;49.552;7.632;2023-12-29T18:11:56;10.50;99.90
16060;DHT22;8134;49.552;7.632;2023-12-29T18:14:21;10.50;99.90
16060;DHT22;8134;49.552;7.632;2023-12-29T18:16:47;10.60;99.90
16060;DHT22;8134;49.552;7.632;2023-12-29T18:19:12;10.50;99.90
16060;DHT22;8134;49.552;7.632;2023-12-29T18:21:38;10.50;99.90
16060;DHT22;8134;49.552;7.632;2023-12-29T18:24:05;10.60;99.90
16060;DHT22;8134;49.552;7.632;2023-12-29T18:26:30;10.60;99.90
16060;DHT22;8134;49.552;7.632;2023-12-29T18:28:56;10.60;99.90
16060;DHT22;8134;49.552;7.632;2023-12-29T18:31:21;10.60;99.90
16060;DHT22;8134;49.552;7.632;2023-12-29T18:33:47;10.60;99.90
16060;DHT22;8134;49.552;7.632;2023-12-29T18:36:13;10.60;99.90
16060;DHT22;8134;49.552;7.632;2023-12-29T18:38:38;10.60;99.90
16060;DHT22;8134;49.552;7.632;2023-12-29T18:41:04;10.60;99.90
16060;DHT22;8134;49.552;7.632;2023-12-29T18:43:30;10.60;99.90
16060;DHT22;8134;49.552;7.632;2023-12-29T18:45:56;10.70;99.90
16060;DHT22;8134;49.552;7.632;2023-12-29T18:48:22;10.50;99.90
16060;DHT22;8134;49.552;7.632;2023-12-29T18:50:47;10.60;99.90
16060;DHT22;8134;49.552;7.632;2023-12-29T18:53:13;10.50;99.90
16060;DHT22;8134;49.552;7.632;2023-12-29T18:55:39;10.50;99.90
16060;DHT22;8134;49.552;7.632;2023-12-29T18:58:10;10.50;99.90
16060;DHT22;8134;49.552;7.632;2023-12-29T19:00:35;10.40;99.90
16060;DHT22;8134;49.552;7.632;2023-12-29T19:03:01;10.40;99.90
16060;DHT22;8134;49.552;7.632;2023-12-29T19:05:26;10.40;99.90
16060;DHT22;8134;49.552;7.632;2023-12-29T19:07:52;10.50;99.90
16060;DHT22;8134;49.552;7.632;2023-12-29T19:10:17;10.60;99.90
16060;DHT22;8134;49.552;7.632;2023-12-29T19:12:43;10.50;99.90
16060;DHT22;8134;49.552;7.632;2023-12-29T19:15:12;10.50;99.90
16060;DHT22;8134;49.552;7.632;2023-12-29T19:17:38;10.50;99.90
16060;DHT22;8134;49.552;7.632;2023-12-29T19:20:04;10.40;99.90
16060;DHT22;8134;49.552;7.632;2023-12-29T19:22:30;10.40;99.90
16060;DHT22;8134;49.552;7.632;2023-12-29T19:24:56;10.50;99.90
16060;DHT22;8134;49.552;7.632;2023-12-29T19:27:21;10.40;99.90
16060;DHT22;8134;49.552;7.632;2023-12-29T19:29:47;10.40;99.90
16060;DHT22;8134;49.552;7.632;2023-12-29T19:32:13;10.30;99.90
16060;DHT22;8134;49.552;7.632;2023-12-29T19:34:41;10.40;99.90
16060;DHT22;8134;49.552;7.632;2023-12-29T19:37:06;10.40;99.90
16060;DHT22;8134;49.552;7.632;2023-12-29T19:39:32;10.40;99.90
16060;DHT22;8134;49.552;7.632;2023-12-29T19:41:57;10.40;99.90
16060;DHT22;8134;49.552;7.632;2023-12-29T19:44:23;10.40;99.90
16060;DHT22;8134;49.552;7.632;2023-12-29T19:46:48;10.50;99.90
16060;DHT22;8134;49.552;7.632;2023-12-29T19:49:14;10.50;99.90
16060;DHT22;8134;49.552;7.632;2023-12-29T19:51:39;10.50;99.90
16060;DHT22;8134;49.552;7.632;2023-12-29T19:54:05;10.50;99.90
16060;DHT22;8134;49.552;7.632;2023-12-29T19:56:30;10.50;99.90
16060;DHT22;8134;49.552;7.632;2023-12-29T19:58:56;10.50;99.90
16060;DHT22;8134;49.552;7.632;2023-12-29T20:01:23;10.60;99.90
16060;DHT22;8134;49.552;7.632;2023-12-29T20:03:49;10.60;99.90
16060;DHT22;8134;49.552;7.632;2023-12-29T20:06:18;10.60;99.90
16060;DHT22;8134;49.552;7.632;2023-12-29T20:08:45;10.60;99.90
16060;DHT22;8134;49.552;7.632;2023-12-29T20:11:11;10.60;99.90
16060;DHT22;8134;49.552;7.632;2023-12-29T20:13:36;10.60;99.90
16060;DHT22;8134;49.552;7.632;2023-12-29T20:16:02;10.60;99.90
16060;DHT22;8134;49.552;7.632;2023-12-29T20:18:30;10.60;99.90
16060;DHT22;8134;49.552;7.632;2023-12-29T20:20:55;10.60;99.90
16060;DHT22;8134;49.552;7.632;2023-12-29T20:23:21;10.60;99.90
16060;DHT22;8134;49.552;7.632;2023-12-29T20:25:46;10.60;99.90
16060;DHT22;8134;49.552;7.632;2023-12-29T20:28:12;10.60;99.90
16060;DHT22;8134;49.552;7.632;2023-12-29T20:30:38;10.60;99.90
16060;DHT22;8134;49.552;7.632;2023-12-29T20:33:03;10.60;99.90
16060;DHT22;8134;49.552;7.632;2023-12-29T20:35:29;10.60;99.90
16060;DHT22;8134;49.552;7.632;2023-12-29T20:37:55;10.60;99.90
16060;DHT22;8134;49.552;7.632;2023-12-29T20:40:20;10.60;99.90
16060;DHT22;8134;49.552;7.632;2023-12-29T20:42:48;10.50;99.90
16060;DHT22;8134;49.552;7.632;2023-12-29T20:45:14;10.50;99.90
16060;DHT22;8134;49.552;7.632;2023-12-29T20:47:40;10.50;99.90
16060;DHT22;8134;49.552;7.632;2023-12-29T20:50:05;10.50;99.90
16060;DHT22;8134;49.552;7.632;2023-12-29T20:52:31;10.50;99.90
16060;DHT22;8134;49.552;7.632;2023-12-29T20:54:57;10.40;99.90
16060;DHT22;8134;49.552;7.632;2023-12-29T20:57:22;10.40;99.90
16060;DHT22;8134;49.552;7.632;2023-12-29T20:59:50;10.40;99.90
16060;DHT22;8134;49.552;7.632;2023-12-29T21:02:15;10.40;99.90
16060;DHT22;8134;49.552;7.632;2023-12-29T21:04:41;10.50;99.90
16060;DHT22;8134;49.552;7.632;2023-12-29T21:07:07;10.40;99.90
16060;DHT22;8134;49.552;7.632;2023-12-29T21:09:33;10.50;99.90
16060;DHT22;8134;49.552;7.632;2023-12-29T21:11:59;10.50;99.90
16060;DHT22;8134;49.552;7.632;2023-12-29T21:14:24;10.50;99.90
16060;DHT22;8134;49.552;7.632;2023-12-29T21:16:50;10.50;99.90
16060;DHT22;8134;49.552;7.632;2023-12-29T21:19:15;10.50;99.90
16060;DHT22;8134;49.552;7.632;2023-12-29T21:21:41;10.50;99.90
16060;DHT22;8134;49.552;7.632;2023-12-29T21:24:07;10.50;99.90
16060;DHT22;8134;49.552;7.632;2023-12-29T21:26:33;10.50;99.90
16060;DHT22;8134;49.552;7.632;2023-12-29T21:29:00;10.60;99.90
16060;DHT22;8134;49.552;7.632;2023-12-29T21:31:27;10.50;99.90
16060;DHT22;8134;49.552;7.632;2023-12-29T21:33:53;10.50;99.90
16060;DHT22;8134;49.552;7.632;2023-12-29T21:36:19;10.50;99.90
16060;DHT22;8134;49.552;7.632;2023-12-29T21:38:45;10.50;99.90
16060;DHT22;8134;49.552;7.632;2023-12-29T21:41:10;10.50;99.90
16060;DHT22;8134;49.552;7.632;2023-12-29T21:43:39;10.50;99.90
16060;DHT22;8134;49.552;7.632;2023-12-29T21:46:05;10.40;99.90
16060;DHT22;8134;49.552;7.632;2023-12-29T21:48:32;10.40;99.90
16060;DHT22;8134;49.552;7.632;2023-12-29T21:50:58;10.40;99.90
16060;DHT22;8134;49.552;7.632;2023-12-29T21:53:23;10.40;99.90
16060;DHT22;8134;49.552;7.632;2023-12-29T21:55:49;10.40;99.90
16060;DHT22;8134;49.552;7.632;2023-12-29T21:58:17;10.40;99.90
16060;DHT22;8134;49.552;7.632;2023-12-29T22:00:42;10.40;99.90
16060;DHT22;8134;49.552;7.632;2023-12-29T22:03:08;10.50;99.90
16060;DHT22;8134;49.552;7.632;2023-12-29T22:05:34;10.40;99.90
16060;DHT22;8134;49.552;7.632;2023-12-29T22:08:00;10.50;99.90
16060;DHT22;8134;49.552;7.632;2023-12-29T22:10:25;10.50;99.90
16060;DHT22;8134;49.552;7.632;2023-12-29T22:12:51;10.50;99.90
16060;DHT22;8134;49.552;7.632;2023-12-29T22:15:18;10.40;99.90
16060;DHT22;8134;49.552;7.632;2023-12-29T22:17:43;10.50;99.90
16060;DHT22;8134;49.552;7.632;2023-12-29T22:20:09;10.50;99.90
16060;DHT22;8134;49.552;7.632;2023-12-29T22:22:35;10.50;99.90
16060;DHT22;8134;49.552;7.632;2023-12-29T22:25:01;10.50;99.90
16060;DHT22;8134;49.552;7.632;2023-12-29T22:27:27;10.50;99.90
16060;DHT22;8134;49.552;7.632;2023-12-29T22:29:52;10.50;99.90
16060;DHT22;8134;49.552;7.632;2023-12-29T22:32:18;10.50;99.90
16060;DHT22;8134;49.552;7.632;2023-12-29T22:34:43;10.50;99.90
16060;DHT22;8134;49.552;7.632;2023-12-29T22:37:09;10.50;99.90
16060;DHT22;8134;49.552;7.632;2023-12-29T22:39:34;10.50;99.90
16060;DHT22;8134;49.552;7.632;2023-12-29T22:42:00;10.70;99.90
16060;DHT22;8134;49.552;7.632;2023-12-29T22:44:26;10.60;99.90
16060;DHT22;8134;49.552;7.632;2023-12-29T22:46:52;10.60;99.90
16060;DHT22;8134;49.552;7.632;2023-12-29T22:49:18;10.60;99.90
16060;DHT22;8134;49.552;7.632;2023-12-29T22:51:43;10.40;99.90
16060;DHT22;8134;49.552;7.632;2023-12-29T22:54:09;10.50;99.90
16060;DHT22;8134;49.552;7.632;2023-12-29T22:56:35;10.50;99.90
16060;DHT22;8134;49.552;7.632;2023-12-29T22:59:02;10.50;99.90
16060;DHT22;8134;49.552;7.632;2023-12-29T23:01:28;10.40;99.90
16060;DHT22;8134;49.552;7.632;2023-12-29T23:03:53;10.50;99.90
16060;DHT22;8134;49.552;7.632;2023-12-29T23:06:19;10.40;99.90
16060;DHT22;8134;49.552;7.632;2023-12-29T23:08:44;10.40;99.90
16060;DHT22;8134;49.552;7.632;2023-12-29T23:11:10;10.40;99.90
16060;DHT22;8134;49.552;7.632;2023-12-29T23:13:35;10.30;99.90
16060;DHT22;8134;49.552;7.632;2023-12-29T23:16:01;10.30;99.90
16060;DHT22;8134;49.552;7.632;2023-12-29T23:18:27;10.30;99.90
16060;DHT22;8134;49.552;7.632;2023-12-29T23:20:52;10.30;99.90
16060;DHT22;8134;49.552;7.632;2023-12-29T23:23:18;10.30;99.90
16060;DHT22;8134;49.552;7.632;2023-12-29T23:25:43;10.50;99.90
16060;DHT22;8134;49.552;7.632;2023-12-29T23:28:09;10.30;99.90
16060;DHT22;8134;49.552;7.632;2023-12-29T23:30:34;10.20;99.90